createdAt,value
2019-02-23T00:00:12.674Z,23.38
2019-02-23T00:01:11.255Z,23.38
2019-02-23T00:02:11.235Z,22.99
2019-02-23T00:03:11.203Z,23.48
2019-02-23T00:04:11.183Z,23.48
2019-02-23T00:05:11.169Z,23.58
2019-02-23T00:06:10.913Z,23.48
2019-02-23T00:07:11.127Z,23.58
2019-02-23T00:08:11.102Z,23.48
2019-02-23T00:09:11.089Z,23.48
2019-02-23T00:10:11.068Z,23.48
2019-02-23T00:11:11.049Z,23.48
2019-02-23T00:12:11.030Z,23.48
2019-02-23T00:13:11.004Z,23.28
2019-02-23T00:14:10.978Z,23.28
2019-02-23T00:15:10.968Z,23.38
2019-02-23T00:16:10.938Z,23.28
2019-02-23T00:17:10.920Z,23.48
2019-02-23T00:18:12.652Z,23.48
2019-02-23T00:19:10.889Z,23.28
2019-02-23T00:20:10.868Z,23.09
2019-02-23T00:21:10.834Z,23.48
2019-02-23T00:22:10.811Z,23.09
2019-02-23T00:23:10.800Z,23.48
2019-02-23T00:24:10.789Z,23.38
2019-02-23T00:25:10.754Z,23.48
2019-02-23T00:26:10.726Z,23.38
2019-02-23T00:27:10.706Z,23.28
2019-02-23T00:28:10.698Z,23.38
2019-02-23T00:29:10.673Z,23.48
2019-02-23T00:30:10.657Z,23.28
2019-02-23T00:31:10.385Z,23.19
2019-02-23T00:32:10.620Z,23.28
2019-02-23T00:33:10.590Z,23.28
2019-02-23T00:34:10.573Z,23.28
2019-02-23T00:35:10.548Z,23.27
2019-02-23T00:36:10.524Z,23.28
2019-02-23T00:37:10.263Z,23.19
2019-02-23T00:38:10.494Z,23.57
2019-02-23T00:39:10.464Z,23.48
2019-02-23T00:40:10.438Z,23.18
2019-02-23T00:41:10.434Z,23.28
2019-02-23T00:42:10.416Z,23.18
2019-02-23T00:43:10.387Z,23.27
2019-02-23T00:44:10.368Z,23.47
2019-02-23T00:45:10.342Z,23.28
2019-02-23T00:46:10.312Z,23.48
2019-02-23T00:47:10.313Z,23.48
2019-02-23T00:48:10.272Z,23.58
2019-02-23T00:49:10.261Z,23.47
2019-02-23T00:50:10.232Z,23.48
2019-02-23T00:51:10.223Z,23.47
2019-02-23T00:52:10.206Z,23.09
2019-02-23T00:53:10.177Z,23.28
2019-02-23T00:54:10.146Z,23.18
2019-02-23T00:55:10.135Z,23.28
2019-02-23T00:56:10.116Z,23.08
2019-02-23T00:57:10.092Z,22.99
2019-02-23T00:58:10.062Z,23.38
2019-02-23T00:59:10.047Z,23.27
2019-02-23T01:00:10.034Z,23.27
2019-02-23T01:01:10.017Z,23.28
2019-02-23T01:02:11.945Z,23.27
2019-02-23T01:03:09.962Z,23.27
2019-02-23T01:04:09.952Z,23.28
2019-02-23T01:05:09.925Z,23.28
2019-02-23T01:06:09.909Z,23.27
2019-02-23T01:07:09.877Z,23.27
2019-02-23T01:08:09.858Z,23.18
2019-02-23T01:09:09.842Z,23.28
2019-02-23T01:10:09.827Z,23.27
2019-02-23T01:11:09.803Z,23.18
2019-02-23T01:12:09.775Z,23.27
2019-02-23T01:13:09.843Z,23.37
2019-02-23T01:14:09.744Z,23.27
2019-02-23T01:15:09.731Z,23.18
2019-02-23T01:16:09.692Z,23.18
2019-02-23T01:17:09.677Z,23.27
2019-02-23T01:18:09.656Z,23.27
2019-02-23T01:19:09.646Z,23.28
2019-02-23T01:20:09.608Z,23.19
2019-02-23T01:21:09.596Z,23.08
2019-02-23T01:22:09.570Z,23.37
2019-02-23T01:23:09.566Z,23.18
2019-02-23T01:24:09.550Z,22.5
2019-02-23T01:25:09.527Z,23.37
2019-02-23T01:26:09.487Z,23.18
2019-02-23T01:27:09.467Z,23.18
2019-02-23T01:28:09.452Z,23.18
2019-02-23T01:29:09.426Z,23.08
2019-02-23T01:30:09.402Z,22.99
2019-02-23T01:31:09.381Z,23.18
2019-02-23T01:32:09.368Z,22.99
2019-02-23T01:33:09.342Z,23.08
2019-02-23T01:34:09.328Z,23.18
2019-02-23T01:35:09.304Z,22.89
2019-02-23T01:36:09.297Z,22.79
2019-02-23T01:37:09.262Z,22.79
2019-02-23T01:38:09.246Z,22.79
2019-02-23T01:39:09.211Z,22.69
2019-02-23T01:40:09.193Z,22.89
2019-02-23T01:41:09.178Z,22.89
2019-02-23T01:42:09.164Z,22.89
2019-02-23T01:43:09.135Z,22.6
2019-02-23T01:44:09.115Z,22.89
2019-02-23T01:45:09.097Z,22.89
2019-02-23T01:46:09.080Z,22.5
2019-02-23T01:47:09.059Z,22.5
2019-02-23T01:48:09.030Z,22.5
2019-02-23T01:49:09.015Z,22.5
2019-02-23T01:50:08.986Z,22.69
2019-02-23T01:51:08.975Z,22.79
2019-02-23T01:52:08.947Z,22.79
2019-02-23T01:53:08.928Z,22.79
2019-02-23T01:54:08.905Z,22.69
2019-02-23T01:55:08.892Z,22.6
2019-02-23T01:56:08.870Z,22.79
2019-02-23T01:57:08.842Z,22.69
2019-02-23T01:58:08.818Z,22.69
2019-02-23T01:59:08.804Z,22.69
2019-02-23T02:00:08.789Z,22.6
2019-02-23T02:01:08.759Z,22.5
2019-02-23T02:02:08.735Z,22.5
2019-02-23T02:03:08.714Z,22.5
2019-02-23T02:04:08.705Z,22.5
2019-02-23T02:05:08.675Z,22.4
2019-02-23T02:06:08.665Z,22.79
2019-02-23T02:07:08.631Z,22.5
2019-02-23T02:08:08.622Z,22.79
2019-02-23T02:09:08.596Z,22.69
2019-02-23T02:10:08.580Z,22.5
2019-02-23T02:11:08.547Z,22.89
2019-02-23T02:12:08.524Z,22.69
2019-02-23T02:13:08.513Z,22.69
2019-02-23T02:14:08.500Z,22.69
2019-02-23T02:15:08.468Z,22.69
2019-02-23T02:16:08.445Z,22.69
2019-02-23T02:17:08.429Z,22.69
2019-02-23T02:18:08.412Z,22.79
2019-02-23T02:19:08.396Z,22.89
2019-02-23T02:20:13.579Z,22.69
2019-02-23T02:21:08.349Z,22.69
2019-02-23T02:22:08.330Z,22.89
2019-02-23T02:23:08.312Z,22.6
2019-02-23T02:24:08.277Z,22.79
2019-02-23T02:25:08.265Z,22.6
2019-02-23T02:26:08.285Z,22.79
2019-02-23T02:27:08.225Z,22.6
2019-02-23T02:28:08.207Z,22.6
2019-02-23T02:29:08.177Z,22.5
2019-02-23T02:30:08.157Z,22.5
2019-02-23T02:31:08.148Z,22.6
2019-02-23T02:32:07.882Z,22.5
2019-02-23T02:33:08.100Z,22.5
2019-02-23T02:34:08.074Z,22.6
2019-02-23T02:35:08.072Z,22.6
2019-02-23T02:36:08.037Z,22.89
2019-02-23T02:37:08.013Z,22.11
2019-02-23T02:38:08.002Z,22.5
2019-02-23T02:39:08.052Z,22.11
2019-02-23T02:40:07.957Z,22.5
2019-02-23T02:41:07.929Z,22.3
2019-02-23T02:42:07.910Z,22.2
2019-02-23T02:43:07.877Z,22.11
2019-02-23T02:44:07.861Z,22.2
2019-02-23T02:45:07.844Z,22.2
2019-02-23T02:46:07.834Z,22.11
2019-02-23T02:47:07.809Z,22.11
2019-02-23T02:48:07.535Z,22.2
2019-02-23T02:49:07.786Z,22.11
2019-02-23T02:50:07.745Z,22.2
2019-02-23T02:51:07.722Z,22.4
2019-02-23T02:52:07.694Z,22.3
2019-02-23T02:53:07.685Z,22.5
2019-02-23T02:54:07.649Z,22.4
2019-02-23T02:55:07.643Z,22.5
2019-02-23T02:56:07.626Z,22.4
2019-02-23T02:57:07.596Z,22.4
2019-02-23T02:58:07.566Z,22.5
2019-02-23T02:59:07.557Z,22.5
2019-02-23T03:00:07.544Z,22.3
2019-02-23T03:01:07.506Z,22.4
2019-02-23T03:02:07.486Z,22.4
2019-02-23T03:03:07.470Z,22.3
2019-02-23T03:04:07.456Z,22.5
2019-02-23T03:05:07.429Z,22.5
2019-02-23T03:06:07.420Z,22.3
2019-02-23T03:07:07.391Z,22.2
2019-02-23T03:08:07.358Z,22.11
2019-02-23T03:09:07.343Z,22.11
2019-02-23T03:10:07.318Z,22.11
2019-02-23T03:11:07.311Z,22.02
2019-02-23T03:12:07.281Z,22.11
2019-02-23T03:13:07.258Z,22.02
2019-02-23T03:14:07.238Z,22.11
2019-02-23T03:15:07.332Z,22.5
2019-02-23T03:16:07.209Z,22.5
2019-02-23T03:17:07.174Z,22.4
2019-02-23T03:18:07.151Z,22.3
2019-02-23T03:19:07.138Z,22.4
2019-02-23T03:20:07.128Z,22.2
2019-02-23T03:21:07.090Z,22.4
2019-02-23T03:22:07.073Z,22.3
2019-02-23T03:23:07.044Z,22.2
2019-02-23T03:24:07.034Z,22.2
2019-02-23T03:25:07.022Z,22.2
2019-02-23T03:26:06.998Z,22.5
2019-02-23T03:27:06.962Z,22.4
2019-02-23T03:28:07.050Z,22.5
2019-02-23T03:29:06.923Z,22.5
2019-02-23T03:30:06.943Z,22.4
2019-02-23T03:31:06.881Z,22.4
2019-02-23T03:32:06.858Z,22.4
2019-02-23T03:33:06.629Z,22.4
2019-02-23T03:34:06.835Z,22.2
2019-02-23T03:35:06.797Z,22.3
2019-02-23T03:36:06.769Z,22.2
2019-02-23T03:37:06.757Z,22.2
2019-02-23T03:38:06.738Z,22.2
2019-02-23T03:39:06.723Z,22.11
2019-02-23T03:40:06.688Z,22.11
2019-02-23T03:41:06.673Z,22.3
2019-02-23T03:42:06.651Z,22.3
2019-02-23T03:43:06.642Z,22.3
2019-02-23T03:44:06.605Z,22.2
2019-02-23T03:45:06.610Z,22.11
2019-02-23T03:46:06.582Z,22.3
2019-02-23T03:47:06.552Z,22.3
2019-02-23T03:48:06.533Z,22.2
2019-02-23T03:49:06.576Z,22.2
2019-02-23T03:50:06.482Z,22.11
2019-02-23T03:51:06.463Z,22.11
2019-02-23T03:52:06.447Z,22
2019-02-23T03:53:06.850Z,22.11
2019-02-23T03:54:06.399Z,22.2
2019-02-23T03:55:06.376Z,22.11
2019-02-23T03:56:06.366Z,22.3
2019-02-23T03:57:06.333Z,22.2
2019-02-23T03:58:06.324Z,22.4
2019-02-23T03:59:06.292Z,22.4
2019-02-23T04:00:06.285Z,22.4
2019-02-23T04:01:06.276Z,22.4
2019-02-23T04:02:06.236Z,22.02
2019-02-23T04:03:06.228Z,22.02
2019-02-23T04:04:06.185Z,22.3
2019-02-23T04:05:06.176Z,21.81
2019-02-23T04:06:06.154Z,22.39
2019-02-23T04:07:06.142Z,21.92
2019-02-23T04:08:06.335Z,22.3
2019-02-23T04:09:06.096Z,22
2019-02-23T04:10:06.077Z,21.91
2019-02-23T04:11:06.071Z,22
2019-02-23T04:12:06.129Z,22.2
2019-02-23T04:13:06.004Z,22.2
2019-02-23T04:14:05.981Z,22.2
2019-02-23T04:15:05.977Z,21.51
2019-02-23T04:16:05.933Z,21.81
2019-02-23T04:17:05.918Z,21.51
2019-02-23T04:18:05.904Z,21.51
2019-02-23T04:19:05.879Z,21.51
2019-02-23T04:20:05.859Z,21.42
2019-02-23T04:21:05.843Z,21.51
2019-02-23T04:22:05.804Z,21.51
2019-02-23T04:23:05.554Z,21.51
2019-02-23T04:24:05.775Z,21.71
2019-02-23T04:25:05.751Z,21.51
2019-02-23T04:26:05.723Z,21.71
2019-02-23T04:27:05.704Z,21.71
2019-02-23T04:28:05.695Z,21.71
2019-02-23T04:29:05.663Z,21.42
2019-02-23T04:30:05.653Z,21.71
2019-02-23T04:31:05.620Z,21.61
2019-02-23T04:32:05.604Z,21.51
2019-02-23T04:33:05.587Z,21.51
2019-02-23T04:34:05.565Z,21.51
2019-02-23T04:35:05.532Z,21.71
2019-02-23T04:36:05.512Z,21.72
2019-02-23T04:37:05.499Z,21.71
2019-02-23T04:38:05.389Z,21.42
2019-02-23T04:39:05.454Z,21.71
2019-02-23T04:40:05.431Z,21.71
2019-02-23T04:41:05.429Z,21.71
2019-02-23T04:42:05.395Z,21.71
2019-02-23T04:43:05.380Z,21.71
2019-02-23T04:44:05.345Z,22
2019-02-23T04:45:05.331Z,21.71
2019-02-23T04:46:05.302Z,21.91
2019-02-23T04:47:05.289Z,21.71
2019-02-23T04:48:05.281Z,21.71
2019-02-23T04:49:05.256Z,21.91
2019-02-23T04:50:05.227Z,21.81
2019-02-23T04:51:16.287Z,21.81
2019-02-23T04:52:05.181Z,21.71
2019-02-23T04:53:05.162Z,21.71
2019-02-23T04:54:05.144Z,21.71
2019-02-23T04:55:05.120Z,21.71
2019-02-23T04:56:05.104Z,21.71
2019-02-23T04:57:05.080Z,21.71
2019-02-23T04:58:05.057Z,21.71
2019-02-23T04:59:05.049Z,21.81
2019-02-23T05:00:05.008Z,21.61
2019-02-23T05:01:04.996Z,21.71
2019-02-23T05:02:04.963Z,21.71
2019-02-23T05:03:04.956Z,21.71
2019-02-23T05:04:04.923Z,21.71
2019-02-23T05:05:04.907Z,21.71
2019-02-23T05:06:04.883Z,21.71
2019-02-23T05:07:04.871Z,21.51
2019-02-23T05:08:04.854Z,21.51
2019-02-23T05:09:04.818Z,21.71
2019-02-23T05:10:04.795Z,21.81
2019-02-23T05:11:04.787Z,21.61
2019-02-23T05:12:04.763Z,21.61
2019-02-23T05:13:04.744Z,21.61
2019-02-23T05:14:04.713Z,21.81
2019-02-23T05:15:04.693Z,21.81
2019-02-23T05:16:04.682Z,21.71
2019-02-23T05:17:04.651Z,21.81
2019-02-23T05:18:04.640Z,21.81
2019-02-23T05:19:04.617Z,21.51
2019-02-23T05:20:04.603Z,21.71
2019-02-23T05:21:04.570Z,21.51
2019-02-23T05:22:04.553Z,21.71
2019-02-23T05:23:04.520Z,21.61
2019-02-23T05:24:04.504Z,21.61
2019-02-23T05:25:04.499Z,21.51
2019-02-23T05:26:04.476Z,21.51
2019-02-23T05:27:04.442Z,21.51
2019-02-23T05:28:04.413Z,21.61
2019-02-23T05:29:04.403Z,21.42
2019-02-23T05:30:04.403Z,21.51
2019-02-23T05:31:04.364Z,21.51
2019-02-23T05:32:04.336Z,21.42
2019-02-23T05:33:04.316Z,21.42
2019-02-23T05:34:04.287Z,21.61
2019-02-23T05:35:04.279Z,21.33
2019-02-23T05:36:04.250Z,21.13
2019-02-23T05:37:04.235Z,21.13
2019-02-23T05:38:04.208Z,21.23
2019-02-23T05:39:04.196Z,21.23
2019-02-23T05:40:04.175Z,21.42
2019-02-23T05:41:04.148Z,21.42
2019-02-23T05:42:04.119Z,21.42
2019-02-23T05:43:04.203Z,21.33
2019-02-23T05:44:04.092Z,21.13
2019-02-23T05:45:04.122Z,21.33
2019-02-23T05:46:04.036Z,21.33
2019-02-23T05:47:04.012Z,21.42
2019-02-23T05:48:04.038Z,21.42
2019-02-23T05:49:03.975Z,21.23
2019-02-23T05:50:03.990Z,21.42
2019-02-23T05:51:03.934Z,21.03
2019-02-23T05:52:03.921Z,21.03
2019-02-23T05:53:03.898Z,21.13
2019-02-23T05:54:03.880Z,21.42
2019-02-23T05:55:03.848Z,20.94
2019-02-23T05:56:03.830Z,20.84
2019-02-23T05:57:03.823Z,21.03
2019-02-23T05:58:03.791Z,20.94
2019-02-23T05:59:03.764Z,21.03
2019-02-23T06:00:03.749Z,21.03
2019-02-23T06:01:03.726Z,21.13
2019-02-23T06:02:03.708Z,21.33
2019-02-23T06:03:03.690Z,21.33
2019-02-23T06:04:03.658Z,21.23
2019-02-23T06:05:03.641Z,21.23
2019-02-23T06:06:03.619Z,21.33
2019-02-23T06:07:03.607Z,21.23
2019-02-23T06:08:03.571Z,21.23
2019-02-23T06:09:03.633Z,21.23
2019-02-23T06:10:03.537Z,21.23
2019-02-23T06:11:03.528Z,21.13
2019-02-23T06:12:03.495Z,21.23
2019-02-23T06:13:03.468Z,21.23
2019-02-23T06:14:03.445Z,21.23
2019-02-23T06:15:03.436Z,21.13
2019-02-23T06:16:03.410Z,21.13
2019-02-23T06:17:06.512Z,21.51
2019-02-23T06:18:03.388Z,21.23
2019-02-23T06:19:03.340Z,21.03
2019-02-23T06:20:03.363Z,21.03
2019-02-23T06:21:03.304Z,21.23
2019-02-23T06:22:03.285Z,21.03
2019-02-23T06:23:03.263Z,20.94
2019-02-23T06:24:03.003Z,21.33
2019-02-23T06:25:03.219Z,20.84
2019-02-23T06:26:03.286Z,20.84
2019-02-23T06:27:03.178Z,20.84
2019-02-23T06:28:03.148Z,20.74
2019-02-23T06:29:03.132Z,20.74
2019-02-23T06:30:03.108Z,20.84
2019-02-23T06:31:03.094Z,20.74
2019-02-23T06:32:03.077Z,20.74
2019-02-23T06:33:03.046Z,21.03
2019-02-23T06:34:12.462Z,20.94
2019-02-23T06:35:02.997Z,21.03
2019-02-23T06:36:02.987Z,21.03
2019-02-23T06:37:02.965Z,20.84
2019-02-23T06:38:02.947Z,21.03
2019-02-23T06:39:02.914Z,20.94
2019-02-23T06:40:02.926Z,20.84
2019-02-23T06:41:02.890Z,21.03
2019-02-23T06:42:02.860Z,21.03
2019-02-23T06:43:02.839Z,20.94
2019-02-23T06:44:02.809Z,20.84
2019-02-23T06:45:02.795Z,20.84
2019-02-23T06:46:02.782Z,20.84
2019-02-23T06:47:02.746Z,21.03
2019-02-23T06:48:02.723Z,20.94
2019-02-23T06:49:02.705Z,21.03
2019-02-23T06:50:02.693Z,21.03
2019-02-23T06:51:02.694Z,21.03
2019-02-23T06:52:06.881Z,21.13
2019-02-23T06:53:02.624Z,21.13
2019-02-23T06:54:02.596Z,21.23
2019-02-23T06:55:02.790Z,21.13
2019-02-23T06:56:02.552Z,21.22
2019-02-23T06:57:02.541Z,21.33
2019-02-23T06:58:02.514Z,21.22
2019-02-23T06:59:02.500Z,21.23
2019-02-23T07:00:02.478Z,20.74
2019-02-23T07:01:02.460Z,20.93
2019-02-23T07:02:02.429Z,20.94
2019-02-23T07:03:02.411Z,20.94
2019-02-23T07:04:02.398Z,20.93
2019-02-23T07:05:02.369Z,21.13
2019-02-23T07:06:02.346Z,20.94
2019-02-23T07:07:02.321Z,20.84
2019-02-23T07:08:02.308Z,20.93
2019-02-23T07:09:02.284Z,20.93
2019-02-23T07:10:02.265Z,20.84
2019-02-23T07:11:02.331Z,20.84
2019-02-23T07:12:02.256Z,20.74
2019-02-23T07:13:02.197Z,20.84
2019-02-23T07:14:02.182Z,20.74
2019-02-23T07:15:02.148Z,20.65
2019-02-23T07:16:02.126Z,20.83
2019-02-23T07:17:02.113Z,20.73
2019-02-23T07:18:02.097Z,20.74
2019-02-23T07:19:02.071Z,20.65
2019-02-23T07:20:02.042Z,20.64
2019-02-23T07:21:02.028Z,20.55
2019-02-23T07:22:02.019Z,20.94
2019-02-23T07:23:01.994Z,20.65
2019-02-23T07:24:01.962Z,20.65
2019-02-23T07:25:01.942Z,20.74
2019-02-23T07:26:01.915Z,21.03
2019-02-23T07:27:01.907Z,20.84
2019-02-23T07:28:01.873Z,20.93
2019-02-23T07:29:01.853Z,20.84
2019-02-23T07:30:01.832Z,20.93
2019-02-23T07:31:02.818Z,20.84
2019-02-23T07:32:01.798Z,20.55
2019-02-23T07:33:01.773Z,20.74
2019-02-23T07:34:01.745Z,20.36
2019-02-23T07:35:01.730Z,20.45
2019-02-23T07:36:01.730Z,20.44
2019-02-23T07:37:01.759Z,20.45
2019-02-23T07:38:01.659Z,20.65
2019-02-23T07:39:01.639Z,20.54
2019-02-23T07:40:01.638Z,20.55
2019-02-23T07:41:01.604Z,20.55
2019-02-23T07:42:01.587Z,20.65
2019-02-23T07:43:01.555Z,20.84
2019-02-23T07:44:03.369Z,20.25
2019-02-23T07:45:01.520Z,20.55
2019-02-23T07:46:01.501Z,20.44
2019-02-23T07:47:01.468Z,20.34
2019-02-23T07:48:01.445Z,20.54
2019-02-23T07:49:01.432Z,20.34
2019-02-23T07:50:01.416Z,20.45
2019-02-23T07:51:01.388Z,20.16
2019-02-23T07:52:01.363Z,20.36
2019-02-23T07:53:01.347Z,20.34
2019-02-23T07:54:01.331Z,20.25
2019-02-23T07:55:01.314Z,20.26
2019-02-23T07:56:01.279Z,20.36
2019-02-23T07:57:01.263Z,20.34
2019-02-23T07:58:01.234Z,20.34
2019-02-23T07:59:01.227Z,20.26
2019-02-23T08:00:01.193Z,20.26
2019-02-23T08:01:01.176Z,20.16
2019-02-23T08:02:01.151Z,20.26
2019-02-23T08:03:01.138Z,20.26
2019-02-23T08:04:01.119Z,20.15
2019-02-23T08:05:01.188Z,20.36
2019-02-23T08:06:01.064Z,20.25
2019-02-23T08:07:01.050Z,20.26
2019-02-23T08:08:01.041Z,20.65
2019-02-23T08:09:01.012Z,20.34
2019-02-23T08:10:00.981Z,20.65
2019-02-23T08:11:00.957Z,20.55
2019-02-23T08:12:00.948Z,20.44
2019-02-23T08:13:00.920Z,20.45
2019-02-23T08:14:00.911Z,20.55
2019-02-23T08:15:00.878Z,20.34
2019-02-23T08:16:00.863Z,20.65
2019-02-23T08:17:00.834Z,20.64
2019-02-23T08:18:00.819Z,20.54
2019-02-23T08:19:01.613Z,20.65
2019-02-23T08:20:00.768Z,20.44
2019-02-23T08:21:00.751Z,20.44
2019-02-23T08:22:00.735Z,20.44
2019-02-23T08:23:00.706Z,20.54
2019-02-23T08:24:00.681Z,20.36
2019-02-23T08:25:01.706Z,20.44
2019-02-23T08:26:00.652Z,20.34
2019-02-23T08:27:00.627Z,20.34
2019-02-23T08:28:00.598Z,20.34
2019-02-23T08:29:00.591Z,20.54
2019-02-23T08:30:00.565Z,20.25
2019-02-23T08:31:00.543Z,20.25
2019-02-23T08:32:00.509Z,20.15
2019-02-23T08:33:00.493Z,20.45
2019-02-23T08:34:00.468Z,19.96
2019-02-23T08:35:00.457Z,20.25
2019-02-23T08:36:00.433Z,20.34
2019-02-23T08:37:00.411Z,20.34
2019-02-23T08:38:00.384Z,20.15
2019-02-23T08:39:00.383Z,20.15
2019-02-23T08:40:00.350Z,20.06
2019-02-23T08:41:00.333Z,19.96
2019-02-23T08:42:00.295Z,20.15
2019-02-23T08:43:00.280Z,20.16
2019-02-23T08:44:00.266Z,20.16
2019-02-23T08:45:00.257Z,20.44
2019-02-23T08:46:00.221Z,20.15
2019-02-23T08:47:00.189Z,20.15
2019-02-23T08:48:00.181Z,20.25
2019-02-23T08:49:00.154Z,20.25
2019-02-23T08:50:00.304Z,20.44
2019-02-23T08:51:00.114Z,20.45
2019-02-23T08:52:00.084Z,20.34
2019-02-23T08:53:00.068Z,20.26
2019-02-23T08:54:00.052Z,20.45
2019-02-23T08:55:00.022Z,20.16
2019-02-23T08:55:59.997Z,19.87
2019-02-23T08:56:59.983Z,19.68
2019-02-23T08:57:59.969Z,19.68
2019-02-23T08:58:59.950Z,20.06
2019-02-23T08:59:59.925Z,19.87
2019-02-23T09:00:59.898Z,19.96
2019-02-23T09:01:59.869Z,19.96
2019-02-23T09:02:59.860Z,19.86
2019-02-23T09:03:59.831Z,19.76
2019-02-23T09:04:59.809Z,19.96
2019-02-23T09:05:59.784Z,20.16
2019-02-23T09:06:59.773Z,19.96
2019-02-23T09:07:59.751Z,19.96
2019-02-23T09:08:59.725Z,20.06
2019-02-23T09:09:59.715Z,19.96
2019-02-23T09:10:59.682Z,19.96
2019-02-23T09:11:59.667Z,20.16
2019-02-23T09:12:59.743Z,20.15
2019-02-23T09:13:59.613Z,19.96
2019-02-23T09:14:59.592Z,19.86
2019-02-23T09:15:59.579Z,19.87
2019-02-23T09:16:59.554Z,19.78
2019-02-23T09:17:59.541Z,20.15
2019-02-23T09:18:59.505Z,20.06
2019-02-23T09:19:59.498Z,19.96
2019-02-23T09:20:59.470Z,20.16
2019-02-23T09:21:59.457Z,19.96
2019-02-23T09:23:02.489Z,20.26
2019-02-23T09:23:59.401Z,20.26
2019-02-23T09:24:59.385Z,20.16
2019-02-23T09:26:00.269Z,20.26
2019-02-23T09:26:59.104Z,20.16
2019-02-23T09:27:59.314Z,20.06
2019-02-23T09:28:59.302Z,19.96
2019-02-23T09:29:59.282Z,20.16
2019-02-23T09:30:59.261Z,20.16
2019-02-23T09:31:59.234Z,20.36
2019-02-23T09:32:58.974Z,19.87
2019-02-23T09:33:59.187Z,19.87
2019-02-23T09:34:59.179Z,19.87
2019-02-23T09:35:59.142Z,19.87
2019-02-23T09:36:59.125Z,19.87
2019-02-23T09:37:59.102Z,19.87
2019-02-23T09:38:59.093Z,19.87
2019-02-23T09:39:59.070Z,19.96
2019-02-23T09:40:59.041Z,19.87
2019-02-23T09:42:09.634Z,19.78
2019-02-23T09:42:59.002Z,19.78
2019-02-23T09:43:58.991Z,19.87
2019-02-23T09:44:58.963Z,19.87
2019-02-23T09:45:58.932Z,19.68
2019-02-23T09:46:58.910Z,19.87
2019-02-23T09:47:58.657Z,19.68
2019-02-23T09:48:58.908Z,19.87
2019-02-23T09:49:58.857Z,19.78
2019-02-23T09:50:58.827Z,19.78
2019-02-23T09:51:58.824Z,19.96
2019-02-23T09:52:58.788Z,19.78
2019-02-23T09:53:58.774Z,19.78
2019-02-23T09:54:58.752Z,19.68
2019-02-23T09:55:58.731Z,19.78
2019-02-23T09:56:58.700Z,19.96
2019-02-23T09:57:58.676Z,19.87
2019-02-23T09:58:58.661Z,20.06
2019-02-23T09:59:58.647Z,19.87
2019-02-23T10:00:58.624Z,19.96
2019-02-23T10:01:58.593Z,19.96
2019-02-23T10:02:58.567Z,19.96
2019-02-23T10:03:58.559Z,19.68
2019-02-23T10:04:58.540Z,19.87
2019-02-23T10:05:58.515Z,19.68
2019-02-23T10:06:58.485Z,19.87
2019-02-23T10:07:58.473Z,19.38
2019-02-23T10:08:58.450Z,19.38
2019-02-23T10:09:58.430Z,19.58
2019-02-23T10:11:00.107Z,19.38
2019-02-23T10:11:58.380Z,19.29
2019-02-23T10:12:58.361Z,19.19
2019-02-23T10:13:58.348Z,19.09
2019-02-23T10:14:58.320Z,19.38
2019-02-23T10:15:58.290Z,19.48
2019-02-23T10:16:58.277Z,19.19
2019-02-23T10:17:58.260Z,19.38
2019-02-23T10:18:58.242Z,19.38
2019-02-23T10:19:58.205Z,19.09
2019-02-23T10:20:58.192Z,19.29
2019-02-23T10:21:58.180Z,19.38
2019-02-23T10:22:58.154Z,19.29
2019-02-23T10:23:58.139Z,19.58
2019-02-23T10:24:58.106Z,19.48
2019-02-23T10:25:58.083Z,19.48
2019-02-23T10:26:58.069Z,19.38
2019-02-23T10:27:59.258Z,19.48
2019-02-23T10:28:58.021Z,19.38
2019-02-23T10:29:57.993Z,19.48
2019-02-23T10:30:57.979Z,19.4
2019-02-23T10:31:57.961Z,19.29
2019-02-23T10:32:57.934Z,19.48
2019-02-23T10:33:57.908Z,19.3
2019-02-23T10:34:57.885Z,19.4
2019-02-23T10:35:57.875Z,19.68
2019-02-23T10:36:57.850Z,19.4
2019-02-23T10:37:57.834Z,19.59
2019-02-23T10:38:57.800Z,19.59
2019-02-23T10:39:57.790Z,19.1
2019-02-23T10:40:59.725Z,19.01
2019-02-23T10:41:57.749Z,19.1
2019-02-23T10:42:57.716Z,19.2
2019-02-23T10:43:57.695Z,19.4
2019-02-23T10:44:57.683Z,18.91
2019-02-23T10:45:57.669Z,19.01
2019-02-23T10:46:57.644Z,18.91
2019-02-23T10:47:57.614Z,19.01
2019-02-23T10:48:57.597Z,19.1
2019-02-23T10:49:57.578Z,19.1
2019-02-23T10:50:57.559Z,18.81
2019-02-23T10:51:57.526Z,18.91
2019-02-23T10:52:57.515Z,18.91
2019-02-23T10:53:57.484Z,18.73
2019-02-23T10:54:57.475Z,18.82
2019-02-23T10:55:57.441Z,18.62
2019-02-23T10:56:57.424Z,18.82
2019-02-23T10:57:57.160Z,18.92
2019-02-23T10:58:57.391Z,18.81
2019-02-23T10:59:57.367Z,18.73
2019-02-23T11:00:57.338Z,18.71
2019-02-23T11:01:57.326Z,18.92
2019-02-23T11:02:57.313Z,18.92
2019-02-23T11:03:57.283Z,18.81
2019-02-23T11:04:57.265Z,19.02
2019-02-23T11:05:57.228Z,18.71
2019-02-23T11:06:57.258Z,18.81
2019-02-23T11:07:57.199Z,19.02
2019-02-23T11:08:57.175Z,18.71
2019-02-23T11:09:57.166Z,18.82
2019-02-23T11:10:57.127Z,18.71
2019-02-23T11:11:57.127Z,18.73
2019-02-23T11:12:57.090Z,18.73
2019-02-23T11:13:57.074Z,18.73
2019-02-23T11:14:57.042Z,18.62
2019-02-23T11:15:57.020Z,18.63
2019-02-23T11:16:57.006Z,18.62
2019-02-23T11:17:57.110Z,18.62
2019-02-23T11:18:57.515Z,18.63
2019-02-23T11:19:57.038Z,18.71
2019-02-23T11:20:57.279Z,18.92
2019-02-23T11:21:56.908Z,18.52
2019-02-23T11:22:56.885Z,18.73
2019-02-23T11:23:56.852Z,18.73
2019-02-23T11:24:56.840Z,18.73
2019-02-23T11:25:56.810Z,18.62
2019-02-23T11:26:56.801Z,18.71
2019-02-23T11:27:56.771Z,18.62
2019-02-23T11:28:56.753Z,18.81
2019-02-23T11:29:56.726Z,18.62
2019-02-23T11:30:56.718Z,18.81
2019-02-23T11:31:56.696Z,18.81
2019-02-23T11:32:56.674Z,18.81
2019-02-23T11:33:56.644Z,18.81
2019-02-23T11:34:56.628Z,18.81
2019-02-23T11:35:56.612Z,18.91
2019-02-23T11:36:56.583Z,18.91
2019-02-23T11:37:56.560Z,18.81
2019-02-23T11:38:56.550Z,18.81
2019-02-23T11:39:56.528Z,18.81
2019-02-23T11:40:56.499Z,18.62
2019-02-23T11:41:56.502Z,19.01
2019-02-23T11:42:56.455Z,18.91
2019-02-23T11:43:56.444Z,18.91
2019-02-23T11:44:56.418Z,18.81
2019-02-23T11:45:56.402Z,18.71
2019-02-23T11:47:03.599Z,18.81
2019-02-23T11:47:56.352Z,18.62
2019-02-23T11:48:56.333Z,19.01
2019-02-23T11:49:56.317Z,18.62
2019-02-23T11:50:56.294Z,18.81
2019-02-23T11:51:56.267Z,18.62
2019-02-23T11:52:56.258Z,18.71
2019-02-23T11:53:57.711Z,18.43
2019-02-23T11:54:56.216Z,18.23
2019-02-23T11:55:56.183Z,18.23
2019-02-23T11:56:56.204Z,18.43
2019-02-23T11:57:56.138Z,18.43
2019-02-23T11:58:56.131Z,18.52
2019-02-23T11:59:56.103Z,18.43
2019-02-23T12:00:56.105Z,18.62
2019-02-23T12:01:56.432Z,18.62
2019-02-23T12:02:56.045Z,18.62
2019-02-23T12:03:56.028Z,18.52
2019-02-23T12:04:55.996Z,18.52
2019-02-23T12:05:55.983Z,18.62
2019-02-23T12:06:55.967Z,18.62
2019-02-23T12:07:55.939Z,18.62
2019-02-23T12:08:57.338Z,18.52
2019-02-23T12:09:55.886Z,18.62
2019-02-23T12:10:55.874Z,18.62
2019-02-23T12:11:55.858Z,18.81
2019-02-23T12:12:55.849Z,18.62
2019-02-23T12:13:55.813Z,18.62
2019-02-23T12:14:55.788Z,18.71
2019-02-23T12:15:55.775Z,18.81
2019-02-23T12:16:55.754Z,18.62
2019-02-23T12:17:55.730Z,18.52
2019-02-23T12:18:55.701Z,18.52
2019-02-23T12:19:57.764Z,18.52
2019-02-23T12:20:55.662Z,18.52
2019-02-23T12:21:55.646Z,18.71
2019-02-23T12:22:55.620Z,18.52
2019-02-23T12:24:05.328Z,18.43
2019-02-23T12:24:55.577Z,18.43
2019-02-23T12:25:55.561Z,17.94
2019-02-23T12:26:55.543Z,18.04
2019-02-23T12:27:55.512Z,18.04
2019-02-23T12:28:55.505Z,17.94
2019-02-23T12:29:55.466Z,18.04
2019-02-23T12:30:55.460Z,18.33
2019-02-23T12:31:55.423Z,18.33
2019-02-23T12:32:55.408Z,18.23
2019-02-23T12:33:55.142Z,18.13
2019-02-23T12:34:55.373Z,18.13
2019-02-23T12:35:55.364Z,18.04
2019-02-23T12:36:57.508Z,18.23
2019-02-23T12:37:55.296Z,18.33
2019-02-23T12:38:55.283Z,18.43
2019-02-23T12:39:55.268Z,18.23
2019-02-23T12:40:55.241Z,18.23
2019-02-23T12:41:55.215Z,18.43
2019-02-23T12:42:55.195Z,18.23
2019-02-23T12:43:55.184Z,18.23
2019-02-23T12:44:55.156Z,18.13
2019-02-23T12:45:55.144Z,18.04
2019-02-23T12:46:55.109Z,18.23
2019-02-23T12:47:55.103Z,18.33
2019-02-23T12:48:55.077Z,18.23
2019-02-23T12:49:55.058Z,18.33
2019-02-23T12:50:55.025Z,18.33
2019-02-23T12:51:54.763Z,18.52
2019-02-23T12:52:54.989Z,18.13
2019-02-23T12:53:54.985Z,18.23
2019-02-23T12:54:54.948Z,17.94
2019-02-23T12:55:54.920Z,18.13